Time;durP1;ratioP1;P1;durP2;ratioP2;P2;SDS_P1;SDS_P2;PMS_P1;PMS_P2;Temp;Humidity;BMP_temperature;BMP_pressure;BME280_temperature;BME280_humidity;BME280_pressure;Samples;Min_cycle;Max_cycle;Signal;HPM_P1;HPM_P2
2022/11/29 00:00:17;;;;;;;28.10;21.00;;;;;;;-1.22;100.00;100033.54;434093;1284;143249;-66
2022/11/29 00:10:23;;;;;;;28.50;19.90;;;;;;;-1.19;100.00;100029.90;430428;1287;142401;-67
2022/11/29 00:20:29;;;;;;;30.40;18.90;;;;;;;-1.18;100.00;100027.14;434898;1289;143586;-65
2022/11/29 00:30:34;;;;;;;28.00;19.60;;;;;;;-1.17;100.00;100030.75;434105;1292;143556;-66
2022/11/29 00:40:40;;;;;;;25.60;18.00;;;;;;;-1.14;100.00;100022.98;434830;1291;143650;-67
2022/11/29 00:50:46;;;;;;;24.40;18.00;;;;;;;-1.12;100.00;100015.77;434112;1295;153853;-67
2022/11/29 01:00:52;;;;;;;26.40;19.50;;;;;;;-1.09;100.00;100013.14;434740;1281;143941;-67
2022/11/29 01:11:05;;;;;;;24.20;18.10;;;;;;;-1.06;99.98;100011.40;434711;1285;144088;-67
2022/11/29 01:21:12;;;;;;;28.70;19.90;;;;;;;-1.06;99.97;100004.19;433920;1289;142651;-67
2022/11/29 01:31:21;;;;;;;24.40;17.50;;;;;;;-1.06;99.97;99996.29;434746;1292;143135;-67
2022/11/29 01:41:28;;;;;;;26.00;18.30;;;;;;;-1.08;99.90;99994.23;434639;1289;142921;-66
2022/11/29 01:51:36;;;;;;;28.50;19.10;;;;;;;-1.09;99.96;99994.95;433931;1284;143512;-66
2022/11/29 02:01:43;;;;;;;26.80;17.60;;;;;;;-1.07;99.92;99995.79;430624;1286;142891;-65
2022/11/29 02:12:07;;;;;;;27.60;18.70;;;;;;;-1.08;99.95;99994.77;428694;1294;142487;-67
2022/11/29 02:22:17;;;;;;;30.20;19.70;;;;;;;-1.11;99.83;99988.60;430433;1286;142508;-66
2022/11/29 02:32:57;;;;;;;30.30;18.40;;;;;;;-1.14;100.00;99994.14;434928;1285;143166;-66
2022/11/29 02:43:25;;;;;;;31.30;20.10;;;;;;;-1.17;99.97;99995.86;434404;1289;143704;-66
2022/11/29 02:53:38;;;;;;;27.60;19.30;;;;;;;-1.19;99.95;100009.30;434799;1288;142541;-66
2022/11/29 03:03:50;;;;;;;27.70;19.50;;;;;;;-1.22;99.92;100009.16;434198;1286;210709;-66
2022/11/29 03:14:18;;;;;;;31.60;20.00;;;;;;;-1.25;99.93;100005.39;434706;1289;144240;-66
2022/11/29 03:24:31;;;;;;;28.30;19.20;;;;;;;-1.26;100.00;100017.95;431726;1286;142828;-66
2022/11/29 03:34:53;;;;;;;29.30;20.00;;;;;;;-1.31;100.00;100013.01;431520;1286;143699;-65
2022/11/29 03:45:07;;;;;;;26.40;17.50;;;;;;;-1.37;100.00;100010.83;432247;1287;143546;-64
2022/11/29 03:55:24;;;;;;;28.70;19.20;;;;;;;-1.38;100.00;100021.82;427882;1287;143018;-66
2022/11/29 04:06:02;;;;;;;32.60;20.40;;;;;;;-1.41;100.00;100031.98;434751;1280;143282;-66
2022/11/29 04:16:44;;;;;;;31.00;22.50;;;;;;;-1.46;100.00;100034.58;434428;1285;145150;-66
2022/11/29 04:27:29;;;;;;;30.10;20.60;;;;;;;-1.39;100.00;100046.90;434090;1281;145609;-66
2022/11/29 04:37:57;;;;;;;28.20;19.30;;;;;;;-1.39;100.00;100057.89;434784;1289;144221;-66
2022/11/29 04:48:18;;;;;;;29.70;18.70;;;;;;;-1.44;100.00;100060.51;433956;1282;142487;-67
2022/11/29 04:58:29;;;;;;;29.90;19.10;;;;;;;-1.44;100.00;100068.57;434756;1285;143583;-66
2022/11/29 05:08:46;;;;;;;30.40;20.00;;;;;;;-1.42;100.00;100075.60;429596;1287;143524;-66
2022/11/29 05:19:11;;;;;;;29.70;20.70;;;;;;;-1.41;100.00;100079.70;423324;1279;213148;-65
2022/11/29 05:29:26;;;;;;;31.90;21.30;;;;;;;-1.43;100.00;100084.53;428141;1285;143910;-66
2022/11/29 05:39:41;;;;;;;31.60;20.40;;;;;;;-1.44;100.00;100097.77;422792;1277;143644;-65
2022/11/29 05:49:58;;;;;;;32.00;19.20;;;;;;;-1.44;100.00;100107.23;426799;1279;142788;-65
2022/11/29 06:00:06;;;;;;;26.20;20.40;;;;;;;-1.42;100.00;100126.61;433975;1286;144025;-66
2022/11/29 06:10:16;;;;;;;31.00;19.90;;;;;;;-1.44;100.00;100130.91;432855;1287;144969;-66
2022/11/29 06:20:42;;;;;;;28.90;18.10;;;;;;;-1.42;100.00;100140.34;427694;1286;143457;-67
2022/11/29 06:30:59;;;;;;;33.50;21.60;;;;;;;-1.37;100.00;100153.90;434278;1286;212974;-66
2022/11/29 06:41:13;;;;;;;30.60;18.40;;;;;;;-1.36;100.00;100158.18;434614;1289;144183;-66
2022/11/29 06:51:28;;;;;;;26.60;18.80;;;;;;;-1.36;100.00;100164.36;433911;1288;144599;-66
2022/11/29 07:01:42;;;;;;;35.40;21.10;;;;;;;-1.33;100.00;100166.94;434715;1286;143866;-67
2022/11/29 07:11:49;;;;;;;29.10;18.90;;;;;;;-1.29;100.00;100177.71;434005;1293;143691;-67
2022/11/29 07:22:06;;;;;;;28.30;19.50;;;;;;;-1.29;100.00;100183.73;428366;1285;143200;-66
2022/11/29 07:32:19;;;;;;;29.60;20.30;;;;;;;-1.27;100.00;100181.48;432166;1287;143318;-67
2022/11/29 07:42:32;;;;;;;35.30;21.40;;;;;;;-1.21;100.00;100190.40;434142;1286;144657;-65
2022/11/29 07:52:37;;;;;;;30.80;20.30;;;;;;;-1.18;100.00;100196.89;417991;1279;142286;-65
2022/11/29 08:02:43;;;;;;;29.70;20.50;;;;;;;-1.12;100.00;100200.64;432415;1286;143494;-67
2022/11/29 08:12:50;;;;;;;26.60;17.00;;;;;;;-1.04;100.00;100209.36;434725;1281;143483;-66
2022/11/29 08:22:57;;;;;;;26.00;17.50;;;;;;;-1.04;99.94;100207.81;430183;1280;146374;-66
2022/11/29 08:33:03;;;;;;;25.70;17.30;;;;;;;-0.98;99.90;100204.86;433892;1288;143276;-66
2022/11/29 08:43:09;;;;;;;28.00;19.30;;;;;;;-0.91;99.83;100207.04;434717;1285;143963;-66
2022/11/29 09:14:02;;;;;;;30.50;20.70;;;;;;;-0.72;99.23;100214.82;434673;1286;146949;-67
2022/11/29 09:24:09;;;;;;;34.10;19.70;;;;;;;-0.73;99.24;100219.64;429606;1286;143964;-65
2022/11/29 09:34:13;;;;;;;;;;;;;;;-0.76;99.26;100227.73;434825;1280;143752;-66
2022/11/29 09:44:30;;;;;;;24.60;17.20;;;;;;;-0.71;99.14;100225.30;435102;1285;172827;-67
2022/11/29 09:54:37;;;;;;;;;;;;;;;-0.64;98.82;100221.63;433904;1287;143164;-67
2022/11/29 10:04:43;;;;;;;;;;;;;;;-0.56;98.46;100214.19;435017;1286;129583;-67
2022/11/29 10:14:57;;;;;;;23.30;16.90;;;;;;;-0.44;98.63;100217.01;434322;1273;131867;-67
2022/11/29 10:25:06;;;;;;;22.80;14.80;;;;;;;-0.34;98.28;100214.51;430111;1286;146764;-67
2022/11/29 10:35:16;;;;;;;24.00;16.40;;;;;;;-0.25;97.98;100215.45;433867;1287;201475;-67
2022/11/29 10:45:33;;;;;;;24.20;16.90;;;;;;;-0.11;97.89;100215.16;427030;1283;143533;-66
2022/11/29 10:55:43;;;;;;;25.50;17.60;;;;;;;-0.04;97.32;100219.05;434790;1283;145243;-66
2022/11/29 11:06:05;;;;;;;24.80;15.50;;;;;;;-0.05;97.00;100217.67;433963;1282;142726;-67
2022/11/29 11:16:17;;;;;;;24.90;17.70;;;;;;;0.08;96.96;100216.33;434704;1295;143971;-66
2022/11/29 11:26:24;;;;;;;29.40;18.90;;;;;;;0.10;96.39;100216.31;424309;1279;141850;-67
2022/11/29 11:36:30;;;;;;;26.70;16.70;;;;;;;0.05;96.09;100228.58;433914;1293;144394;-66
2022/11/29 11:46:50;;;;;;;25.60;17.40;;;;;;;0.07;96.18;100220.13;434864;1286;143589;-66
2022/11/29 11:56:56;;;;;;;27.50;17.50;;;;;;;0.28;95.99;100214.05;434134;1280;143009;-67
2022/11/29 12:07:03;;;;;;;27.00;18.90;;;;;;;0.40;95.69;100213.03;434809;1287;142706;-67
2022/11/29 12:17:12;;;;;;;;;;;;;;;0.40;95.54;100212.54;434826;1295;142360;-65
2022/11/29 12:27:24;;;;;;;24.30;16.40;;;;;;;0.41;95.10;100208.02;433192;1285;129174;-65
2022/11/29 12:37:37;;;;;;;24.70;17.70;;;;;;;0.42;94.71;100210.09;434693;1287;145529;-66
2022/11/29 12:47:53;;;;;;;26.50;17.50;;;;;;;0.39;94.39;100221.15;434085;1294;143418;-66
2022/11/29 12:58:10;;;;;;;27.00;18.60;;;;;;;0.31;94.55;100223.48;434790;1286;144240;-66
2022/11/29 13:08:38;;;;;;;30.50;20.50;;;;;;;0.31;94.55;100227.79;434854;1286;143704;-65
2022/11/29 13:18:51;;;;;;;27.60;17.70;;;;;;;0.29;94.24;100230.39;434293;1286;211052;-66
2022/11/29 13:28:57;;;;;;;28.20;19.70;;;;;;;0.20;94.13;100248.56;428766;1286;142737;-67
2022/11/29 13:39:14;;;;;;;28.70;19.70;;;;;;;0.19;94.18;100254.27;434115;1288;143147;-67
2022/11/29 13:49:51;;;;;;;27.00;19.40;;;;;;;0.18;94.01;100264.79;434827;1285;142559;-67
2022/11/29 13:59:57;;;;;;;20.30;15.60;;;;;;;0.12;93.78;100268.11;434022;1286;144302;-66
2022/11/29 14:10:05;;;;;;;21.70;16.00;;;;;;;0.04;93.69;100266.99;434680;1288;143224;-66
2022/11/29 14:20:50;;;;;;;27.90;17.80;;;;;;;-0.01;93.63;100271.85;434496;1294;141845;-65
2022/11/29 14:30:57;;;;;;;25.20;17.60;;;;;;;-0.04;93.90;100268.95;431747;1285;143767;-65
2022/11/29 14:41:06;;;;;;;;;;;;;;;-0.04;93.99;100271.52;434746;1292;143093;-66
2022/11/29 14:51:15;;;;;;;32.70;20.00;;;;;;;-0.07;94.00;100280.52;434349;1286;129894;-66
2022/11/29 15:01:22;;;;;;;27.80;18.30;;;;;;;-0.09;94.20;100287.93;434697;1283;142854;-66
2022/11/29 15:11:43;;;;;;;26.80;19.60;;;;;;;-0.08;94.15;100297.23;434740;1289;142328;-67
2022/11/29 15:21:56;;;;;;;28.60;19.40;;;;;;;-0.10;94.56;100307.41;434408;1286;142810;-68
2022/11/29 15:32:05;;;;;;;27.90;21.20;;;;;;;-0.11;94.43;100311.88;434667;1286;145100;-66
2022/11/29 15:42:14;;;;;;;30.60;20.60;;;;;;;-0.13;94.79;100316.20;433943;1285;142838;-66
2022/11/29 15:52:26;;;;;;;34.00;21.50;;;;;;;-0.17;94.76;100324.15;424077;1279;142616;-66
2022/11/29 16:02:35;;;;;;;29.10;20.20;;;;;;;-0.20;94.90;100332.09;432598;1286;143148;-66
2022/11/29 16:12:54;;;;;;;27.80;20.20;;;;;;;-0.23;95.13;100336.77;432263;1287;143020;-66
2022/11/29 16:23:13;;;;;;;30.40;21.50;;;;;;;-0.23;95.07;100332.63;434615;1286;142844;-66
2022/11/29 16:33:24;;;;;;;28.30;19.30;;;;;;;-0.24;95.25;100336.77;423666;1285;143636;-66
2022/11/29 16:43:52;;;;;;;32.90;22.30;;;;;;;-0.26;95.39;100334.71;431692;1280;142900;-65
2022/11/29 16:54:22;;;;;;;30.40;20.80;;;;;;;-0.31;95.50;100341.98;433750;1284;145025;-66
2022/11/29 17:04:28;;;;;;;33.50;21.20;;;;;;;-0.33;95.45;100344.40;434620;1289;143315;-66
2022/11/29 17:14:33;;;;;;;31.20;22.20;;;;;;;-0.37;95.20;100344.94;434588;1292;142615;-66
2022/11/29 17:24:40;;;;;;;34.40;23.80;;;;;;;-0.42;95.17;100351.16;433838;1293;143959;-67
2022/11/29 17:34:52;;;;;;;30.20;22.30;;;;;;;-0.46;95.18;100354.81;432698;1295;144117;-67
2022/11/29 17:44:58;;;;;;;35.30;23.90;;;;;;;-0.49;95.18;100356.55;427837;1285;145069;-67
2022/11/29 17:55:04;;;;;;;31.70;23.00;;;;;;;-0.56;94.92;100360.71;428458;1287;142997;-68
2022/11/29 18:05:10;;;;;;;33.10;23.00;;;;;;;-0.62;95.04;100364.02;434540;1292;142841;-67
2022/11/29 18:15:16;;;;;;;37.50;23.60;;;;;;;-0.64;94.98;100367.98;433988;1289;142945;-66
2022/11/29 18:25:22;;;;;;;30.50;22.50;;;;;;;-0.67;95.12;100378.49;423672;1287;144064;-66
2022/11/29 18:35:43;;;;;;;29.50;21.60;;;;;;;-0.74;94.92;100381.09;432078;1282;143509;-68
2022/11/29 18:45:50;;;;;;;33.50;24.20;;;;;;;-0.79;95.15;100388.00;434587;1287;143174;-68
2022/11/29 18:56:03;;;;;;;33.00;22.30;;;;;;;-0.83;94.98;100400.39;431479;1286;142920;-67
2022/11/29 19:06:12;;;;;;;30.00;22.60;;;;;;;-0.93;95.05;100406.80;433689;1288;143195;-67
2022/11/29 19:16:20;;;;;;;35.50;24.00;;;;;;;-1.02;95.49;100410.08;434683;1285;142514;-66
2022/11/29 19:26:28;;;;;;;35.10;24.80;;;;;;;-1.10;95.33;100414.06;420556;1288;143296;-66
2022/11/29 19:36:35;;;;;;;35.50;25.50;;;;;;;-1.23;95.38;100419.08;433522;1288;193466;-66
2022/11/29 19:46:44;;;;;;;36.40;27.00;;;;;;;-1.31;95.62;100425.79;426289;1294;141927;-66
2022/11/29 19:56:50;;;;;;;36.10;27.20;;;;;;;-1.32;96.12;100442.98;433853;1294;142680;-66
2022/11/29 20:06:56;;;;;;;42.50;26.70;;;;;;;-1.33;96.22;100451.73;434536;1287;145031;-67
2022/11/29 20:17:02;;;;;;;39.50;27.90;;;;;;;-1.43;96.07;100452.27;427065;1287;144252;-66
2022/11/29 20:27:08;;;;;;;34.30;25.10;;;;;;;-1.51;96.29;100450.02;422750;1286;142554;-67
2022/11/29 20:37:36;;;;;;;36.00;26.10;;;;;;;-1.58;96.62;100450.38;434537;1279;199472;-67
2022/11/29 20:47:50;;;;;;;40.90;27.20;;;;;;;-1.56;96.92;100451.41;424343;1287;144846;-67
2022/11/29 20:57:56;;;;;;;41.60;27.90;;;;;;;-1.60;96.96;100450.20;429654;1287;210762;-65
2022/11/29 21:08:01;;;;;;;47.30;31.50;;;;;;;-1.62;97.23;100450.05;434523;1279;144406;-66
2022/11/29 21:18:14;;;;;;;41.20;28.30;;;;;;;-1.70;97.12;100464.45;433919;1286;146404;-67
2022/11/29 21:28:24;;;;;;;42.40;26.90;;;;;;;-1.86;97.37;100468.56;434591;1283;143400;-66
2022/11/29 21:38:30;;;;;;;37.90;26.00;;;;;;;-1.97;97.35;100472.14;434614;1286;143229;-68
2022/11/29 21:48:36;;;;;;;41.10;28.60;;;;;;;-1.98;97.58;100472.48;423815;1283;143193;-67
2022/11/29 21:58:42;;;;;;;38.50;27.60;;;;;;;-2.05;97.93;100481.23;431111;1272;143778;-66
2022/11/29 22:08:49;;;;;;;39.70;27.90;;;;;;;-2.20;98.00;100483.59;422625;1286;142903;-67
2022/11/29 22:18:55;;;;;;;40.70;27.90;;;;;;;-2.20;98.58;100473.46;420331;1285;142764;-68
2022/11/29 22:29:01;;;;;;;44.30;30.70;;;;;;;-2.15;98.66;100475.88;421811;1286;142935;-67
2022/11/29 22:39:08;;;;;;;40.30;27.00;;;;;;;-2.15;98.72;100473.66;434001;1293;161804;-66
2022/11/29 22:49:14;;;;;;;41.50;27.30;;;;;;;-2.16;98.58;100480.00;434815;1292;142678;-70
2022/11/29 22:59:20;;;;;;;42.40;28.80;;;;;;;-2.17;98.53;100481.03;431980;1286;143097;-67
2022/11/29 23:09:26;;;;;;;35.80;26.30;;;;;;;-2.21;98.88;100472.43;434132;1289;146169;-67
2022/11/29 23:19:31;;;;;;;38.50;27.00;;;;;;;-2.20;98.85;100471.92;434839;1287;144434;-67
2022/11/29 23:29:37;;;;;;;44.30;29.70;;;;;;;-2.17;98.93;100470.90;434681;1282;143148;-65
2022/11/29 23:39:43;;;;;;;41.70;28.30;;;;;;;-2.13;98.90;100475.73;434146;1278;198773;-65
2022/11/29 23:49:49;;;;;;;35.00;24.30;;;;;;;-2.19;98.77;100473.99;434679;1281;197126;-67
2022/11/29 23:59:55;;;;;;;42.80;29.50;;;;;;;-2.24;98.69;100472.08;431953;1282;143209;-66
